Terminal Aerodrome Forecast
Issued by NWS Shreveport, LA

Home | Current Version | Previous Version | Text Only | Print | Product List | Glossary On
Versions: 1 2 3 4 5 6 7 8 9 10 11 12 13 14 15 16 17 18
000
FTUS44 KSHV 190532
TAFTYR
TAF
KTYR 190532Z 1906/2006 VRB06KT P6SM VCTS SCT035CB BKN100 OVC250
      TEMPO 1906/1910 VRB15G25KT 3SM -TSRA BR BKN030CB
     FM191000 14006KT P6SM SCT040 SCT100 BKN250
     FM191400 18010KT P6SM SCT015 SCT140 SCT250
     FM191600 21014G20KT P6SM SCT030
     FM191900 23015G25KT P6SM SCT040
     FM192100 24015G25KT P6SM VCTS BKN040CB
     FM200300 27010G18KT P6SM SCT040=

USA.gov is the U.S. government's official web portal to all federal, state and local government web resources and services.